sensor_id;sensor_type;location;lat;lon;timestamp;pressure;altitude;pressure_sealevel;temperature;humidity
19114;BME280;9689;51.052;13.772;2024-02-28T00:00:59;100394.59;;;4.69;100.00
19114;BME280;9689;51.052;13.772;2024-02-28T00:06:00;100398.91;;;4.72;100.00
19114;BME280;9689;51.052;13.772;2024-02-28T00:11:03;100399.75;;;4.72;100.00
19114;BME280;9689;51.052;13.772;2024-02-28T00:16:04;100409.22;;;4.75;100.00
19114;BME280;9689;51.052;13.772;2024-02-28T00:21:04;100405.84;;;4.80;100.00
19114;BME280;9689;51.052;13.772;2024-02-28T00:26:06;100411.81;;;4.73;100.00
19114;BME280;9689;51.052;13.772;2024-02-28T00:31:07;100417.03;;;4.79;100.00
19114;BME280;9689;51.052;13.772;2024-02-28T00:36:08;100416.13;;;4.74;100.00
19114;BME280;9689;51.052;13.772;2024-02-28T00:41:10;100424.69;;;4.69;100.00
19114;BME280;9689;51.052;13.772;2024-02-28T00:46:11;100424.69;;;4.69;100.00
19114;BME280;9689;51.052;13.772;2024-02-28T00:51:12;100421.28;;;4.71;100.00
19114;BME280;9689;51.052;13.772;2024-02-28T00:56:14;100415.25;;;4.75;100.00
19114;BME280;9689;51.052;13.772;2024-02-28T01:01:15;100423.84;;;4.73;100.00
19114;BME280;9689;51.052;13.772;2024-02-28T01:06:16;100437.63;;;4.76;100.00
19114;BME280;9689;51.052;13.772;2024-02-28T01:11:18;100426.47;;;4.79;100.00
19114;BME280;9689;51.052;13.772;2024-02-28T01:16:19;100435.03;;;4.72;100.00
19114;BME280;9689;51.052;13.772;2024-02-28T01:21:19;100432.50;;;4.79;100.00
19114;BME280;9689;51.052;13.772;2024-02-28T01:26:21;100423.03;;;4.78;100.00
19114;BME280;9689;51.052;13.772;2024-02-28T01:31:22;100415.25;;;4.77;100.00
19114;BME280;9689;51.052;13.772;2024-02-28T01:36:23;100398.94;;;4.78;100.00
19114;BME280;9689;51.052;13.772;2024-02-28T01:41:25;100394.56;;;4.68;100.00
19114;BME280;9689;51.052;13.772;2024-02-28T01:46:27;100400.63;;;4.73;100.00
19114;BME280;9689;51.052;13.772;2024-02-28T01:51:28;100396.38;;;4.79;100.00
19114;BME280;9689;51.052;13.772;2024-02-28T01:56:31;100393.75;;;4.73;100.00
19114;BME280;9689;51.052;13.772;2024-02-28T02:01:32;100398.00;;;4.65;100.00
19114;BME280;9689;51.052;13.772;2024-02-28T02:06:37;100398.03;;;4.70;100.00
19114;BME280;9689;51.052;13.772;2024-02-28T02:11:40;100391.97;;;4.65;100.00
19114;BME280;9689;51.052;13.772;2024-02-28T02:16:41;100386.81;;;4.66;100.00
19114;BME280;9689;51.052;13.772;2024-02-28T02:21:49;100385.09;;;4.68;100.00
19114;BME280;9689;51.052;13.772;2024-02-28T02:26:57;100386.84;;;4.69;100.00
19114;BME280;9689;51.052;13.772;2024-02-28T02:31:58;100398.03;;;4.71;100.00
19114;BME280;9689;51.052;13.772;2024-02-28T02:36:59;100401.50;;;4.73;100.00
19114;BME280;9689;51.052;13.772;2024-02-28T02:42:01;100392.88;;;4.74;100.00
19114;BME280;9689;51.052;13.772;2024-02-28T02:47:01;100393.75;;;4.72;100.00
19114;BME280;9689;51.052;13.772;2024-02-28T02:52:02;100399.72;;;4.63;100.00
19114;BME280;9689;51.052;13.772;2024-02-28T02:57:04;100395.41;;;4.64;100.00
19114;BME280;9689;51.052;13.772;2024-02-28T03:02:05;100399.72;;;4.66;100.00
19114;BME280;9689;51.052;13.772;2024-02-28T03:07:06;100400.63;;;4.71;100.00
19114;BME280;9689;51.052;13.772;2024-02-28T03:12:08;100410.91;;;4.62;100.00
19114;BME280;9689;51.052;13.772;2024-02-28T03:17:09;100417.84;;;4.72;100.00
19114;BME280;9689;51.052;13.772;2024-02-28T03:22:10;100423.00;;;4.69;100.00
19114;BME280;9689;51.052;13.772;2024-02-28T03:27:12;100425.56;;;4.71;100.00
19114;BME280;9689;51.052;13.772;2024-02-28T03:32:12;100436.72;;;4.64;100.00
19114;BME280;9689;51.052;13.772;2024-02-28T03:37:14;100438.31;;;4.49;100.00
19114;BME280;9689;51.052;13.772;2024-02-28T03:42:16;100447.78;;;4.50;100.00
19114;BME280;9689;51.052;13.772;2024-02-28T03:47:16;100444.41;;;4.53;100.00
19114;BME280;9689;51.052;13.772;2024-02-28T03:52:17;100465.91;;;4.57;100.00
19114;BME280;9689;51.052;13.772;2024-02-28T03:57:19;100470.16;;;4.51;100.00
19114;BME280;9689;51.052;13.772;2024-02-28T04:02:20;100472.66;;;4.41;100.00
19114;BME280;9689;51.052;13.772;2024-02-28T04:07:20;100479.53;;;4.39;100.00
19114;BME280;9689;51.052;13.772;2024-02-28T04:12:22;100488.94;;;4.32;100.00
19114;BME280;9689;51.052;13.772;2024-02-28T04:17:23;100508.69;;;4.27;100.00
19114;BME280;9689;51.052;13.772;2024-02-28T04:22:24;100518.16;;;4.30;100.00
19114;BME280;9689;51.052;13.772;2024-02-28T04:27:26;100525.91;;;4.31;100.00
19114;BME280;9689;51.052;13.772;2024-02-28T04:32:27;100518.97;;;4.22;100.00
19114;BME280;9689;51.052;13.772;2024-02-28T04:37:27;100532.72;;;4.24;100.00
19114;BME280;9689;51.052;13.772;2024-02-28T04:42:29;100539.50;;;4.15;100.00
19114;BME280;9689;51.052;13.772;2024-02-28T04:47:30;100541.25;;;4.16;100.00
19114;BME280;9689;51.052;13.772;2024-02-28T04:52:42;100535.22;;;4.14;100.00
19114;BME280;9689;51.052;13.772;2024-02-28T04:57:44;100541.19;;;4.10;100.00
19114;BME280;9689;51.052;13.772;2024-02-28T05:02:45;100553.16;;;4.05;100.00
19114;BME280;9689;51.052;13.772;2024-02-28T05:07:45;100548.88;;;4.05;100.00
19114;BME280;9689;51.052;13.772;2024-02-28T05:12:47;100552.31;;;4.07;100.00
19114;BME280;9689;51.052;13.772;2024-02-28T05:17:50;100552.25;;;4.00;100.00
19114;BME280;9689;51.052;13.772;2024-02-28T05:22:51;100556.50;;;3.96;100.00
19114;BME280;9689;51.052;13.772;2024-02-28T05:27:53;100557.38;;;3.96;100.00
19114;BME280;9689;51.052;13.772;2024-02-28T05:32:53;100562.56;;;4.00;100.00
19114;BME280;9689;51.052;13.772;2024-02-28T05:37:55;100566.91;;;4.05;100.00
19114;BME280;9689;51.052;13.772;2024-02-28T05:42:57;100572.06;;;4.01;100.00
19114;BME280;9689;51.052;13.772;2024-02-28T05:47:58;100583.16;;;3.98;100.00
19114;BME280;9689;51.052;13.772;2024-02-28T05:52:59;100591.78;;;3.98;100.00
19114;BME280;9689;51.052;13.772;2024-02-28T05:58:01;100594.28;;;3.91;100.00
19114;BME280;9689;51.052;13.772;2024-02-28T06:03:02;100590.03;;;3.96;100.00
19114;BME280;9689;51.052;13.772;2024-02-28T06:08:05;100603.69;;;3.90;100.00
19114;BME280;9689;51.052;13.772;2024-02-28T06:13:07;100603.75;;;3.92;100.00
19114;BME280;9689;51.052;13.772;2024-02-28T06:18:07;100615.78;;;3.91;100.00
19114;BME280;9689;51.052;13.772;2024-02-28T06:23:09;100619.25;;;3.96;100.00
19114;BME280;9689;51.052;13.772;2024-02-28T06:28:23;100617.50;;;3.91;100.00
19114;BME280;9689;51.052;13.772;2024-02-28T06:33:24;100626.97;;;3.95;100.00
19114;BME280;9689;51.052;13.772;2024-02-28T06:38:25;100630.53;;;4.05;100.00
19114;BME280;9689;51.052;13.772;2024-02-28T06:43:27;100642.53;;;4.03;100.00
19114;BME280;9689;51.052;13.772;2024-02-28T06:48:27;100646.06;;;4.09;100.00
19114;BME280;9689;51.052;13.772;2024-02-28T06:53:29;100633.97;;;4.05;100.00
19114;BME280;9689;51.052;13.772;2024-02-28T06:58:31;100644.13;;;3.91;100.00
19114;BME280;9689;51.052;13.772;2024-02-28T07:03:32;100657.94;;;3.98;100.00
19114;BME280;9689;51.052;13.772;2024-02-28T07:08:33;100665.75;;;4.04;100.00
19114;BME280;9689;51.052;13.772;2024-02-28T07:13:35;100659.59;;;3.91;100.00
19114;BME280;9689;51.052;13.772;2024-02-28T07:18:36;100652.78;;;3.98;100.00
19114;BME280;9689;51.052;13.772;2024-02-28T07:23:39;100653.53;;;3.89;100.00
19114;BME280;9689;51.052;13.772;2024-02-28T07:28:41;100656.19;;;3.94;100.00
19114;BME280;9689;51.052;13.772;2024-02-28T07:33:42;100665.63;;;3.93;100.00
19114;BME280;9689;51.052;13.772;2024-02-28T07:38:43;100664.88;;;4.02;100.00
19114;BME280;9689;51.052;13.772;2024-02-28T07:43:45;100673.44;;;4.00;100.00
19114;BME280;9689;51.052;13.772;2024-02-28T07:48:45;100665.66;;;3.95;100.00
19114;BME280;9689;51.052;13.772;2024-02-28T07:53:49;100673.41;;;3.98;100.00
19114;BME280;9689;51.052;13.772;2024-02-28T07:58:51;100689.00;;;4.07;100.00
19114;BME280;9689;51.052;13.772;2024-02-28T08:03:51;100696.03;;;4.19;100.00
19114;BME280;9689;51.052;13.772;2024-02-28T08:08:53;100696.91;;;4.21;100.00
19114;BME280;9689;51.052;13.772;2024-02-28T08:13:55;100700.25;;;4.14;100.00
19114;BME280;9689;51.052;13.772;2024-02-28T08:18:56;100704.63;;;4.18;100.00
19114;BME280;9689;51.052;13.772;2024-02-28T08:23:59;100707.16;;;4.16;100.00
19114;BME280;9689;51.052;13.772;2024-02-28T08:29:04;100708.03;;;4.17;100.00
19114;BME280;9689;51.052;13.772;2024-02-28T08:34:05;100715.69;;;4.09;100.00
19114;BME280;9689;51.052;13.772;2024-02-28T08:39:06;100714.75;;;4.03;100.00
19114;BME280;9689;51.052;13.772;2024-02-28T08:44:10;100713.03;;;4.02;100.00
19114;BME280;9689;51.052;13.772;2024-02-28T08:49:11;100729.28;;;3.99;100.00
19114;BME280;9689;51.052;13.772;2024-02-28T08:54:12;100724.09;;;3.96;100.00
19114;BME280;9689;51.052;13.772;2024-02-28T08:59:14;100722.47;;;4.01;100.00
19114;BME280;9689;51.052;13.772;2024-02-28T09:04:14;100731.06;;;4.02;100.00
19114;BME280;9689;51.052;13.772;2024-02-28T09:09:15;100732.91;;;4.12;100.00
19114;BME280;9689;51.052;13.772;2024-02-28T09:14:17;100738.28;;;4.29;100.00
19114;BME280;9689;51.052;13.772;2024-02-28T09:19:18;100739.53;;;4.61;100.00
19114;BME280;9689;51.052;13.772;2024-02-28T09:24:19;100733.88;;;4.96;98.49
19114;BME280;9689;51.052;13.772;2024-02-28T09:29:21;100732.00;;;4.81;96.51
19114;BME280;9689;51.052;13.772;2024-02-28T09:34:22;100757.66;;;4.67;97.24
19114;BME280;9689;51.052;13.772;2024-02-28T09:39:22;100755.03;;;4.63;98.02
19114;BME280;9689;51.052;13.772;2024-02-28T09:44:26;100764.31;;;4.47;96.74
19114;BME280;9689;51.052;13.772;2024-02-28T09:49:28;100774.00;;;4.65;95.38
19114;BME280;9689;51.052;13.772;2024-02-28T09:54:31;100781.84;;;4.75;94.50
19114;BME280;9689;51.052;13.772;2024-02-28T09:59:34;100780.13;;;4.76;93.01
19114;BME280;9689;51.052;13.772;2024-02-28T10:04:51;100799.16;;;4.86;92.59
19114;BME280;9689;51.052;13.772;2024-02-28T10:09:52;100792.28;;;4.85;92.55
19114;BME280;9689;51.052;13.772;2024-02-28T10:14:54;100788.63;;;4.67;92.23
19114;BME280;9689;51.052;13.772;2024-02-28T10:19:58;100795.47;;;4.62;91.94
19114;BME280;9689;51.052;13.772;2024-02-28T10:25:00;100801.53;;;4.67;92.09
19114;BME280;9689;51.052;13.772;2024-02-28T10:30:03;100816.28;;;4.77;91.80
19114;BME280;9689;51.052;13.772;2024-02-28T10:35:05;100811.00;;;4.67;91.45
19114;BME280;9689;51.052;13.772;2024-02-28T10:40:13;100826.69;;;4.83;91.39
19114;BME280;9689;51.052;13.772;2024-02-28T10:45:17;100831.84;;;4.82;90.94
19114;BME280;9689;51.052;13.772;2024-02-28T10:50:38;100835.06;;;4.64;90.08
19114;BME280;9689;51.052;13.772;2024-02-28T10:55:40;100844.34;;;4.51;92.28
19114;BME280;9689;51.052;13.772;2024-02-28T11:00:43;100834.03;;;4.51;92.71
19114;BME280;9689;51.052;13.772;2024-02-28T11:05:45;100832.06;;;4.34;93.00
19114;BME280;9689;51.052;13.772;2024-02-28T11:10:46;100834.00;;;4.47;91.91
19114;BME280;9689;51.052;13.772;2024-02-28T11:15:48;100835.81;;;4.56;91.94
19114;BME280;9689;51.052;13.772;2024-02-28T11:20:49;100837.88;;;4.81;89.60
19114;BME280;9689;51.052;13.772;2024-02-28T11:25:50;100839.06;;;5.10;87.43
19114;BME280;9689;51.052;13.772;2024-02-28T11:30:52;100840.19;;;5.38;86.01
19114;BME280;9689;51.052;13.772;2024-02-28T11:35:55;100830.00;;;5.51;84.55
19114;BME280;9689;51.052;13.772;2024-02-28T11:40:55;100841.34;;;5.68;82.48
19114;BME280;9689;51.052;13.772;2024-02-28T11:45:58;100842.19;;;5.67;82.01
19114;BME280;9689;51.052;13.772;2024-02-28T11:50:59;100841.34;;;5.68;81.43
19114;BME280;9689;51.052;13.772;2024-02-28T11:55:59;100842.06;;;5.55;81.20
19114;BME280;9689;51.052;13.772;2024-02-28T12:01:01;100841.88;;;5.32;81.15
19114;BME280;9689;51.052;13.772;2024-02-28T12:06:03;100845.84;;;5.02;83.31
19114;BME280;9689;51.052;13.772;2024-02-28T12:11:06;100852.78;;;5.05;84.75
19114;BME280;9689;51.052;13.772;2024-02-28T12:16:09;100845.16;;;5.19;83.85
19114;BME280;9689;51.052;13.772;2024-02-28T12:21:10;100842.84;;;5.46;83.12
19114;BME280;9689;51.052;13.772;2024-02-28T12:26:10;100841.81;;;5.26;82.72
19114;BME280;9689;51.052;13.772;2024-02-28T12:31:13;100848.59;;;5.15;83.12
19114;BME280;9689;51.052;13.772;2024-02-28T12:36:14;100841.81;;;5.27;81.81
19114;BME280;9689;51.052;13.772;2024-02-28T12:41:15;100841.28;;;5.60;81.46
19114;BME280;9689;51.052;13.772;2024-02-28T12:46:18;100847.38;;;5.68;80.77
19114;BME280;9689;51.052;13.772;2024-02-28T12:51:36;100853.41;;;5.66;80.06
19114;BME280;9689;51.052;13.772;2024-02-28T12:56:38;100835.13;;;5.48;79.88
19114;BME280;9689;51.052;13.772;2024-02-28T13:01:40;100840.34;;;5.54;80.24
19114;BME280;9689;51.052;13.772;2024-02-28T13:06:41;100837.84;;;5.63;79.92
19114;BME280;9689;51.052;13.772;2024-02-28T13:11:42;100835.31;;;5.71;78.60
19114;BME280;9689;51.052;13.772;2024-02-28T13:16:44;100830.13;;;5.66;77.40
19114;BME280;9689;51.052;13.772;2024-02-28T13:21:44;100834.28;;;5.50;78.22
19114;BME280;9689;51.052;13.772;2024-02-28T13:26:45;100835.38;;;5.77;77.19
19114;BME280;9689;51.052;13.772;2024-02-28T13:31:47;100833.44;;;5.54;76.27
19114;BME280;9689;51.052;13.772;2024-02-28T13:36:48;100838.75;;;5.70;76.58
19114;BME280;9689;51.052;13.772;2024-02-28T13:41:50;100817.44;;;5.93;75.20
19114;BME280;9689;51.052;13.772;2024-02-28T13:46:53;100827.63;;;5.78;74.23
19114;BME280;9689;51.052;13.772;2024-02-28T13:51:54;100825.97;;;5.85;73.91
19114;BME280;9689;51.052;13.772;2024-02-28T13:56:55;100834.53;;;5.79;73.97
19114;BME280;9689;51.052;13.772;2024-02-28T14:01:57;100836.25;;;5.80;74.17
19114;BME280;9689;51.052;13.772;2024-02-28T14:06:59;100832.97;;;5.97;73.03
19114;BME280;9689;51.052;13.772;2024-02-28T14:12:00;100830.38;;;5.92;72.85
19114;BME280;9689;51.052;13.772;2024-02-28T14:17:02;100830.25;;;5.83;72.99
19114;BME280;9689;51.052;13.772;2024-02-28T14:22:03;100821.66;;;5.88;71.97
19114;BME280;9689;51.052;13.772;2024-02-28T14:27:04;100827.00;;;6.05;71.18
19114;BME280;9689;51.052;13.772;2024-02-28T14:32:07;100821.00;;;6.14;70.85
19114;BME280;9689;51.052;13.772;2024-02-28T14:37:08;100816.47;;;5.85;71.59
19114;BME280;9689;51.052;13.772;2024-02-28T14:42:09;100819.94;;;5.89;71.44
19114;BME280;9689;51.052;13.772;2024-02-28T14:47:12;100806.13;;;5.85;72.58
19114;BME280;9689;51.052;13.772;2024-02-28T14:52:13;100807.06;;;5.90;72.88
19114;BME280;9689;51.052;13.772;2024-02-28T14:57:14;100807.81;;;5.82;73.52
19114;BME280;9689;51.052;13.772;2024-02-28T15:02:17;100806.94;;;5.78;72.56
19114;BME280;9689;51.052;13.772;2024-02-28T15:07:17;100808.72;;;5.84;73.28
19114;BME280;9689;51.052;13.772;2024-02-28T15:12:18;100806.16;;;5.90;72.34
19114;BME280;9689;51.052;13.772;2024-02-28T15:17:20;100809.69;;;5.98;72.68
19114;BME280;9689;51.052;13.772;2024-02-28T15:22:21;100806.34;;;6.10;72.99
19114;BME280;9689;51.052;13.772;2024-02-28T15:27:22;100802.91;;;6.15;72.15
19114;BME280;9689;51.052;13.772;2024-02-28T15:32:25;100804.66;;;6.19;72.52
19114;BME280;9689;51.052;13.772;2024-02-28T15:37:26;100802.94;;;6.17;72.96
19114;BME280;9689;51.052;13.772;2024-02-28T15:42:27;100807.22;;;6.12;72.29
19114;BME280;9689;51.052;13.772;2024-02-28T15:47:29;100809.69;;;5.93;73.50
19114;BME280;9689;51.052;13.772;2024-02-28T15:52:32;100807.09;;;5.92;72.72
19114;BME280;9689;51.052;13.772;2024-02-28T15:57:33;100798.38;;;5.87;73.44
19114;BME280;9689;51.052;13.772;2024-02-28T16:02:35;100794.16;;;5.93;73.29
19114;BME280;9689;51.052;13.772;2024-02-28T16:07:36;100810.41;;;5.82;72.67
19114;BME280;9689;51.052;13.772;2024-02-28T16:12:37;100811.16;;;5.67;73.62
19114;BME280;9689;51.052;13.772;2024-02-28T16:17:39;100816.22;;;5.55;76.33
19114;BME280;9689;51.052;13.772;2024-02-28T16:22:40;100812.59;;;5.33;77.43
19114;BME280;9689;51.052;13.772;2024-02-28T16:27:41;100815.94;;;5.24;78.18
19114;BME280;9689;51.052;13.772;2024-02-28T16:32:44;100819.16;;;5.02;79.14
19114;BME280;9689;51.052;13.772;2024-02-28T16:37:46;100823.28;;;4.86;81.11
19114;BME280;9689;51.052;13.772;2024-02-28T16:42:46;100819.78;;;4.78;80.49
19114;BME280;9689;51.052;13.772;2024-02-28T16:47:49;100826.44;;;4.62;81.55
19114;BME280;9689;51.052;13.772;2024-02-28T16:52:50;100824.34;;;4.34;83.04
19114;BME280;9689;51.052;13.772;2024-02-28T16:57:50;100828.38;;;4.15;85.15
19114;BME280;9689;51.052;13.772;2024-02-28T17:02:53;100835.31;;;4.17;85.05
19114;BME280;9689;51.052;13.772;2024-02-28T17:07:53;100845.41;;;4.04;87.07
19114;BME280;9689;51.052;13.772;2024-02-28T17:12:54;100845.28;;;3.94;87.01
19114;BME280;9689;51.052;13.772;2024-02-28T17:17:56;100852.88;;;3.85;87.60
19114;BME280;9689;51.052;13.772;2024-02-28T17:22:57;100856.03;;;3.69;87.98
19114;BME280;9689;51.052;13.772;2024-02-28T17:27:58;100848.13;;;3.58;89.25
19114;BME280;9689;51.052;13.772;2024-02-28T17:33:00;100855.78;;;3.55;89.64
19114;BME280;9689;51.052;13.772;2024-02-28T17:38:01;100852.19;;;3.47;89.54
19114;BME280;9689;51.052;13.772;2024-02-28T17:43:03;100863.47;;;3.52;90.61
19114;BME280;9689;51.052;13.772;2024-02-28T17:48:06;100865.84;;;3.40;90.58
19114;BME280;9689;51.052;13.772;2024-02-28T17:53:07;100864.84;;;3.32;90.69
19114;BME280;9689;51.052;13.772;2024-02-28T17:58:08;100871.53;;;3.22;91.15
19114;BME280;9689;51.052;13.772;2024-02-28T18:03:11;100872.22;;;3.14;92.06
19114;BME280;9689;51.052;13.772;2024-02-28T18:08:12;100877.97;;;3.02;91.88
19114;BME280;9689;51.052;13.772;2024-02-28T18:13:13;100875.31;;;2.97;92.38
19114;BME280;9689;51.052;13.772;2024-02-28T18:18:18;100875.09;;;2.87;93.08
19114;BME280;9689;51.052;13.772;2024-02-28T18:23:19;100872.31;;;2.76;93.21
19114;BME280;9689;51.052;13.772;2024-02-28T18:28:32;100880.84;;;2.73;94.02
19114;BME280;9689;51.052;13.772;2024-02-28T18:33:37;100883.16;;;2.61;94.31
19114;BME280;9689;51.052;13.772;2024-02-28T18:38:38;100883.06;;;2.58;94.63
19114;BME280;9689;51.052;13.772;2024-02-28T18:43:39;100877.69;;;2.47;94.55
19114;BME280;9689;51.052;13.772;2024-02-28T18:48:43;100888.78;;;2.43;94.99
19114;BME280;9689;51.052;13.772;2024-02-28T18:53:44;100887.72;;;2.35;95.17
19114;BME280;9689;51.052;13.772;2024-02-28T18:58:45;100897.91;;;2.31;95.59
19114;BME280;9689;51.052;13.772;2024-02-28T19:03:47;100905.44;;;2.23;96.08
19114;BME280;9689;51.052;13.772;2024-02-28T19:08:49;100900.88;;;2.11;95.92
19114;BME280;9689;51.052;13.772;2024-02-28T19:13:52;100910.19;;;2.08;96.32
19114;BME280;9689;51.052;13.772;2024-02-28T19:18:56;100911.88;;;2.06;97.02
19114;BME280;9689;51.052;13.772;2024-02-28T19:23:57;100916.94;;;2.03;97.10
19114;BME280;9689;51.052;13.772;2024-02-28T19:28:58;100910.69;;;1.91;96.71
19114;BME280;9689;51.052;13.772;2024-02-28T19:34:00;100911.66;;;1.96;97.01
19114;BME280;9689;51.052;13.772;2024-02-28T19:39:01;100914.16;;;1.93;96.77
19114;BME280;9689;51.052;13.772;2024-02-28T19:44:03;100907.97;;;1.85;96.75
19114;BME280;9689;51.052;13.772;2024-02-28T19:49:08;100908.59;;;1.77;97.50
19114;BME280;9689;51.052;13.772;2024-02-28T19:54:09;100908.63;;;1.78;97.47
19114;BME280;9689;51.052;13.772;2024-02-28T19:59:10;100905.16;;;1.76;97.32
19114;BME280;9689;51.052;13.772;2024-02-28T20:04:12;100907.56;;;1.70;97.44
19114;BME280;9689;51.052;13.772;2024-02-28T20:09:13;100903.97;;;1.63;97.70
19114;BME280;9689;51.052;13.772;2024-02-28T20:14:14;100905.69;;;1.64;97.54
19114;BME280;9689;51.052;13.772;2024-02-28T20:19:16;100909.75;;;1.56;97.76
19114;BME280;9689;51.052;13.772;2024-02-28T20:24:17;100908.91;;;1.56;97.91
19114;BME280;9689;51.052;13.772;2024-02-28T20:29:18;100910.53;;;1.52;98.19
19114;BME280;9689;51.052;13.772;2024-02-28T20:34:20;100911.28;;;1.48;97.99
19114;BME280;9689;51.052;13.772;2024-02-28T20:39:20;100907.72;;;1.43;98.49
19114;BME280;9689;51.052;13.772;2024-02-28T20:44:21;100913.50;;;1.36;98.28
19114;BME280;9689;51.052;13.772;2024-02-28T20:49:24;100911.72;;;1.32;98.69
19114;BME280;9689;51.052;13.772;2024-02-28T20:54:25;100907.31;;;1.28;98.85
19114;BME280;9689;51.052;13.772;2024-02-28T20:59:27;100914.91;;;1.23;98.83
19114;BME280;9689;51.052;13.772;2024-02-28T21:04:34;100907.88;;;1.18;98.76
19114;BME280;9689;51.052;13.772;2024-02-28T21:09:34;100893.13;;;1.10;99.11
19114;BME280;9689;51.052;13.772;2024-02-28T21:14:38;100896.47;;;1.06;99.08
19114;BME280;9689;51.052;13.772;2024-02-28T21:19:40;100888.66;;;1.03;99.41
19114;BME280;9689;51.052;13.772;2024-02-28T21:24:41;100890.19;;;0.97;99.51
19114;BME280;9689;51.052;13.772;2024-02-28T21:29:42;100885.78;;;0.93;99.33
19114;BME280;9689;51.052;13.772;2024-02-28T21:34:44;100895.00;;;0.86;99.51
19114;BME280;9689;51.052;13.772;2024-02-28T21:39:44;100891.50;;;0.82;99.78
19114;BME280;9689;51.052;13.772;2024-02-28T21:44:46;100889.38;;;0.69;99.94
19114;BME280;9689;51.052;13.772;2024-02-28T21:49:48;100888.47;;;0.67;99.87
19114;BME280;9689;51.052;13.772;2024-02-28T21:54:50;100881.50;;;0.62;99.44
19114;BME280;9689;51.052;13.772;2024-02-28T21:59:51;100886.47;;;0.57;99.47
19114;BME280;9689;51.052;13.772;2024-02-28T22:04:53;100884.38;;;0.44;99.65
19114;BME280;9689;51.052;13.772;2024-02-28T22:09:54;100874.75;;;0.37;99.49
19114;BME280;9689;51.052;13.772;2024-02-28T22:14:55;100877.03;;;0.27;99.98
19114;BME280;9689;51.052;13.772;2024-02-28T22:19:57;100881.22;;;0.25;100.00
19114;BME280;9689;51.052;13.772;2024-02-28T22:24:58;100871.81;;;0.24;100.00
19114;BME280;9689;51.052;13.772;2024-02-28T22:29:58;100872.03;;;0.32;100.00
19114;BME280;9689;51.052;13.772;2024-02-28T22:35:01;100880.00;;;0.41;100.00
19114;BME280;9689;51.052;13.772;2024-02-28T22:40:02;100878.47;;;0.46;100.00
19114;BME280;9689;51.052;13.772;2024-02-28T22:45:04;100872.31;;;0.41;99.96
19114;BME280;9689;51.052;13.772;2024-02-28T22:50:07;100861.50;;;0.51;100.00
19114;BME280;9689;51.052;13.772;2024-02-28T22:55:08;100876.19;;;0.55;100.00
19114;BME280;9689;51.052;13.772;2024-02-28T23:00:09;100871.91;;;0.56;100.00
19114;BME280;9689;51.052;13.772;2024-02-28T23:05:30;100872.28;;;0.40;100.00
19114;BME280;9689;51.052;13.772;2024-02-28T23:10:31;100870.91;;;0.51;100.00
19114;BME280;9689;51.052;13.772;2024-02-28T23:15:32;100868.28;;;0.49;100.00
19114;BME280;9689;51.052;13.772;2024-02-28T23:20:35;100864.06;;;0.51;100.00
19114;BME280;9689;51.052;13.772;2024-02-28T23:25:35;100859.66;;;0.46;100.00
19114;BME280;9689;51.052;13.772;2024-02-28T23:30:36;100861.44;;;0.48;100.00
19114;BME280;9689;51.052;13.772;2024-02-28T23:35:38;100863.09;;;0.46;100.00
19114;BME280;9689;51.052;13.772;2024-02-28T23:40:39;100862.09;;;0.43;100.00
19114;BME280;9689;51.052;13.772;2024-02-28T23:45:40;100852.69;;;0.42;100.00
19114;BME280;9689;51.052;13.772;2024-02-28T23:50:48;100844.03;;;0.38;100.00
19114;BME280;9689;51.052;13.772;2024-02-28T23:55:49;100844.75;;;0.34;100.00
